Sun Globe — 9HA2857 — position and weather

sailwx.info

Track history (hours):
 
Tides and Currents Weather Stations Pressure Air Temp Water Temp Dewpoint Dewpoint Depression Visibility Wind Speed Wind Dir Waves Ship Positions

Sun Globe

Last reported at 2015-Jan-22 05:32 UTC. Time now 2015-Jan-30 10:57 UTC.
Position N 01°15' E 104°07'.
Warning: this ship's position is 8 days out of date.

Length 190 m; draft 5.9 m.

Type: Cargo ship. MMSI: 256415000.

Date/timePositionNaut miles runAvg speedWind from/ knotsBaromVisibWave heightAir tempDewpointWater temp
2015-Jan-22 05:32N 01°15' E 104°07'8 8.3
2015-Jan-22 04:32N 01°17' E 103°59'1 0.8
2015-Jan-22 03:11N 01°17' E 103°58'0 0.0
2015-Jan-22 01:26N 01°17' E 103°58'0 0.0
2015-Jan-21 23:33N 01°17' E 103°58'0 0.0
2015-Jan-21 22:50N 01°17' E 103°58'0 0.0
2015-Jan-21 22:43N 01°17' E 103°58'0 0.0
2015-Jan-21 22:33N 01°17' E 103°58'0 0.0
2015-Jan-21 21:33N 01°17' E 103°58'0 0.0
2015-Jan-21 20:33N 01°17' E 103°58'2 2.0
2015-Jan-21 19:33N 01°15' E 103°58'9 8.3
2015-Jan-21 18:31N 01°15' E 104°07'2 1.9
2015-Jan-21 17:33N 01°16' E 104°05'2 2.4
2015-Jan-21 16:33N 01°16' E 104°08'3 3.1
2015-Jan-21 15:31N 01°17' E 104°11'7 0.7
2015-Jan-21 04:32N 01°17' E 104°18'1111.6
2015-Jan-21 03:33N 01°15' E 104°07'1110.9
2015-Jan-21 02:33N 01°13' E 103°56'10 9.7
2015-Jan-21 01:32N 01°09' E 103°47'4 1.4
2015-Jan-20 22:23N 01°10' E 103°43'0 0.1
2015-Jan-20 20:17N 01°10' E 103°43'0 0.1
2015-Jan-20 19:14N 01°10' E 103°43'0 0.0
2015-Jan-20 14:32N 01°10' E 103°43'0 0.1
2015-Jan-20 13:23N 01°10' E 103°43'0 0.0
2015-Jan-20 12:20N 01°10' E 103°43'0 0.3
2015-Jan-20 11:32N 01°10' E 103°43'  
2015-Jan-16 03:07N 01°10' E 103°42'4 5.4
2015-Jan-16 02:19N 01°10' E 103°47'6 7.2
2015-Jan-16 01:28N 01°12' E 103°52'9 9.6
2015-Jan-16 00:33N 01°15' E 104°00'1111.0
2015-Jan-15 23:31N 01°17' E 104°12'  
Track history (hours):
 
Tides and Currents Weather Stations Pressure Air Temp Water Temp Dewpoint Dewpoint Depression Visibility Wind Speed Wind Dir Waves Ship Positions

Sun Globe

Last reported at 2015-Jan-22 05:32 UTC. Time now 2015-Jan-30 10:57 UTC.
Position N 01°15' E 104°07'.
Warning: this ship's position is 8 days out of date.

Length 190 m; draft 5.9 m.

Type: Cargo ship. MMSI: 256415000.

Date/timePositionNaut miles runAvg speedWind from/ knotsBaromVisibWave heightAir tempDewpointWater temp
2015-Jan-22 05:32N 01°15' E 104°07'8 8.3
2015-Jan-22 04:32N 01°17' E 103°59'1 0.8
2015-Jan-22 03:11N 01°17' E 103°58'0 0.0
2015-Jan-22 01:26N 01°17' E 103°58'0 0.0
2015-Jan-21 23:33N 01°17' E 103°58'0 0.0
2015-Jan-21 22:50N 01°17' E 103°58'0 0.0
2015-Jan-21 22:43N 01°17' E 103°58'0 0.0
2015-Jan-21 22:33N 01°17' E 103°58'0 0.0
2015-Jan-21 21:33N 01°17' E 103°58'0 0.0
2015-Jan-21 20:33N 01°17' E 103°58'2 2.0
2015-Jan-21 19:33N 01°15' E 103°58'9 8.3
2015-Jan-21 18:31N 01°15' E 104°07'2 1.9
2015-Jan-21 17:33N 01°16' E 104°05'2 2.4
2015-Jan-21 16:33N 01°16' E 104°08'3 3.1
2015-Jan-21 15:31N 01°17' E 104°11'7 0.7
2015-Jan-21 04:32N 01°17' E 104°18'1111.6
2015-Jan-21 03:33N 01°15' E 104°07'1110.9
2015-Jan-21 02:33N 01°13' E 103°56'10 9.7
2015-Jan-21 01:32N 01°09' E 103°47'4 1.4
2015-Jan-20 22:23N 01°10' E 103°43'0 0.1
2015-Jan-20 20:17N 01°10' E 103°43'0 0.1
2015-Jan-20 19:14N 01°10' E 103°43'0 0.0
2015-Jan-20 14:32N 01°10' E 103°43'0 0.1
2015-Jan-20 13:23N 01°10' E 103°43'0 0.0
2015-Jan-20 12:20N 01°10' E 103°43'0 0.3
2015-Jan-20 11:32N 01°10' E 103°43'  
2015-Jan-16 03:07N 01°10' E 103°42'4 5.4
2015-Jan-16 02:19N 01°10' E 103°47'6 7.2
2015-Jan-16 01:28N 01°12' E 103°52'9 9.6
2015-Jan-16 00:33N 01°15' E 104°00'1111.0
2015-Jan-15 23:31N 01°17' E 104°12'  

Dump ship's entire track history